Time;durP1;ratioP1;P1;durP2;ratioP2;P2;SDS_P1;SDS_P2;PMS_P1;PMS_P2;Temp;Humidity;BMP_temperature;BMP_pressure;BME280_temperature;BME280_humidity;BME280_pressure;Samples;Min_cycle;Max_cycle;Signal;HPM_P1;HPM_P2
2024/03/30 00:00:37;;;;;;;9.10;2.30;;;;;;;14.19;57.75;95715.48;108408;1278;22619;-73
2024/03/30 00:03:30;;;;;;;11.70;2.50;;;;;;;14.22;57.74;95717.44;108407;1278;22525;-72
2024/03/30 00:06:06;;;;;;;8.40;1.90;;;;;;;14.19;57.78;95713.27;108256;1273;22562;-73
2024/03/30 00:08:37;;;;;;;8.90;2.30;;;;;;;14.19;57.86;95722.14;108444;1278;22530;-74
2024/03/30 00:11:08;;;;;;;16.00;2.80;;;;;;;14.14;57.84;95718.27;108279;1273;22575;-73
2024/03/30 00:13:39;;;;;;;12.60;2.10;;;;;;;14.16;57.94;95710.31;108352;1278;22526;-74
2024/03/30 00:16:11;;;;;;;10.40;2.10;;;;;;;14.22;57.87;95720.86;108370;1278;22715;-74
2024/03/30 00:18:43;;;;;;;8.60;2.20;;;;;;;14.16;57.96;95713.52;108373;1278;25309;-73
2024/03/30 00:21:17;;;;;;;10.40;2.50;;;;;;;14.10;57.99;95720.08;108347;1279;22990;-73
2024/03/30 00:23:51;;;;;;;11.00;2.10;;;;;;;14.05;58.07;95724.95;108193;1270;22565;-74
2024/03/30 00:26:29;;;;;;;19.50;3.10;;;;;;;13.97;58.39;95708.29;108211;1277;24447;-73
2024/03/30 00:29:01;;;;;;;13.90;3.00;;;;;;;13.97;58.30;95718.73;108430;1278;22795;-73
2024/03/30 00:31:32;;;;;;;14.30;2.60;;;;;;;13.95;58.48;95721.94;108388;1278;22600;-73
2024/03/30 00:34:03;;;;;;;12.70;2.40;;;;;;;13.91;58.60;95722.35;108366;1278;23118;-73
2024/03/30 00:36:33;;;;;;;16.20;3.80;;;;;;;13.86;58.74;95724.30;108399;1276;22570;-74
2024/03/30 00:39:07;;;;;;;13.90;3.20;;;;;;;13.85;58.92;95717.47;108388;1278;22539;-73
2024/03/30 00:41:38;;;;;;;14.10;2.60;;;;;;;13.84;58.94;95721.05;108354;1278;22558;-73
2024/03/30 00:44:08;;;;;;;18.10;3.00;;;;;;;13.84;58.96;95725.15;108369;1277;22535;-73
2024/03/30 00:46:41;;;;;;;13.70;2.50;;;;;;;13.82;59.13;95715.11;108381;1278;22528;-74
2024/03/30 00:49:16;;;;;;;12.50;2.40;;;;;;;13.80;59.14;95724.45;108441;1278;22851;-73
2024/03/30 00:51:46;;;;;;;15.40;2.20;;;;;;;13.74;59.25;95732.11;108420;1278;22542;-74
2024/03/30 00:54:19;;;;;;;12.90;2.40;;;;;;;13.76;59.42;95720.83;108426;1279;23822;-73
2024/03/30 00:56:53;;;;;;;13.10;2.40;;;;;;;13.82;59.29;95725.60;108349;1276;24239;-74
2024/03/30 00:59:27;;;;;;;16.10;2.70;;;;;;;13.81;59.12;95734.02;108389;1272;22669;-74
2024/03/30 01:01:57;;;;;;;10.70;2.50;;;;;;;13.77;59.16;95732.30;108435;1278;22545;-74
2024/03/30 01:04:30;;;;;;;8.90;2.60;;;;;;;13.74;59.21;95718.58;108370;1274;22679;-74
2024/03/30 01:07:03;;;;;;;16.60;2.70;;;;;;;13.72;59.31;95725.02;108389;1278;22542;-74
2024/03/30 01:09:34;;;;;;;15.00;2.70;;;;;;;13.69;59.41;95720.20;108394;1274;24031;-74
2024/03/30 01:12:06;;;;;;;15.30;2.90;;;;;;;13.64;59.46;95724.51;108347;1278;22533;-74
2024/03/30 01:14:40;;;;;;;11.60;2.60;;;;;;;13.60;59.51;95724.27;108436;1278;26055;-74
2024/03/30 01:17:14;;;;;;;21.70;2.80;;;;;;;13.62;59.73;95720.44;108450;1277;22597;-74
2024/03/30 01:19:46;;;;;;;13.00;2.90;;;;;;;13.63;59.78;95714.91;108402;1279;22682;-74
2024/03/30 01:22:18;;;;;;;15.30;3.40;;;;;;;13.59;59.67;95718.44;108468;1278;22519;-74
2024/03/30 01:24:52;;;;;;;16.60;2.50;;;;;;;13.54;59.87;95715.59;108357;1273;26152;-73
2024/03/30 01:27:27;;;;;;;10.60;2.40;;;;;;;13.51;60.03;95717.79;108465;1278;22568;-73
2024/03/30 01:30:07;;;;;;;16.30;2.50;;;;;;;13.47;60.17;95717.47;108399;1278;22629;-73
2024/03/30 01:32:41;;;;;;;14.40;3.00;;;;;;;13.47;60.24;95718.48;108476;1271;22517;-73
2024/03/30 01:35:15;;;;;;;16.20;2.50;;;;;;;13.47;60.34;95721.33;108390;1278;22523;-73
2024/03/30 01:37:49;;;;;;;13.60;2.70;;;;;;;13.45;60.36;95731.70;108434;1277;25251;-73
2024/03/30 01:40:22;;;;;;;18.50;3.40;;;;;;;13.40;60.42;95727.52;108340;1278;26545;-73
2024/03/30 01:42:55;;;;;;;10.50;2.40;;;;;;;13.35;60.39;95732.63;108379;1277;25413;-74
2024/03/30 01:45:29;;;;;;;16.40;3.70;;;;;;;13.31;60.51;95732.42;108408;1278;25471;-73
2024/03/30 01:48:01;;;;;;;13.10;2.50;;;;;;;13.30;60.59;95722.48;108404;1278;22720;-73
2024/03/30 01:50:32;;;;;;;17.50;3.20;;;;;;;13.31;60.57;95723.75;108411;1278;22592;-73
2024/03/30 01:53:07;;;;;;;9.70;1.90;;;;;;;13.35;60.70;95720.56;108436;1270;25462;-74
2024/03/30 01:55:43;;;;;;;18.00;3.10;;;;;;;13.33;60.68;95716.91;108344;1278;22523;-73
2024/03/30 01:58:18;;;;;;;10.60;2.70;;;;;;;13.29;60.71;95718.19;108390;1278;23688;-73
2024/03/30 02:00:50;;;;;;;12.30;2.20;;;;;;;13.28;60.76;95716.84;108390;1278;24246;-73
2024/03/30 02:03:23;;;;;;;11.90;2.50;;;;;;;13.26;60.85;95716.60;108390;1272;23826;-73
2024/03/30 02:06:03;;;;;;;17.90;3.70;;;;;;;13.26;60.93;95719.64;108358;1278;22518;-73
2024/03/30 02:08:35;;;;;;;14.70;2.90;;;;;;;13.25;61.02;95710.71;108487;1277;23792;-73
2024/03/30 02:11:06;;;;;;;11.60;2.40;;;;;;;13.20;61.02;95719.08;108304;1276;22541;-73
2024/03/30 02:13:37;;;;;;;15.40;3.10;;;;;;;13.15;61.14;95726.67;108416;1277;22658;-73
2024/03/30 02:16:09;;;;;;;14.60;3.30;;;;;;;13.10;61.19;95733.31;108409;1278;24014;-73
2024/03/30 02:18:40;;;;;;;15.10;2.30;;;;;;;13.06;61.34;95731.17;108424;1275;26420;-73
2024/03/30 02:21:12;;;;;;;14.60;4.10;;;;;;;13.04;61.48;95731.25;108435;1272;22544;-73
2024/03/30 02:23:45;;;;;;;15.70;2.60;;;;;;;13.03;61.47;95725.05;108435;1278;22825;-73
2024/03/30 02:26:23;;;;;;;17.50;3.20;;;;;;;13.00;61.50;95723.93;108378;1278;22537;-73
2024/03/30 02:28:57;;;;;;;11.60;2.90;;;;;;;12.96;61.59;95728.55;108427;1277;24416;-73
2024/03/30 02:31:30;;;;;;;18.50;3.30;;;;;;;12.95;61.65;95728.25;108453;1270;24441;-73
2024/03/30 02:34:03;;;;;;;18.00;3.50;;;;;;;12.93;61.84;95724.42;108369;1278;22526;-73
2024/03/30 02:36:35;;;;;;;15.70;2.70;;;;;;;12.90;61.85;95729.25;108345;1277;22523;-73
2024/03/30 02:39:06;;;;;;;16.00;3.40;;;;;;;12.87;61.95;95722.00;108419;1276;25241;-73
2024/03/30 02:41:36;;;;;;;19.60;3.20;;;;;;;12.84;61.98;95726.33;108371;1273;22526;-73
2024/03/30 02:44:07;;;;;;;17.10;3.60;;;;;;;12.82;62.14;95727.86;108441;1272;22533;-73
2024/03/30 02:46:38;;;;;;;15.60;3.20;;;;;;;12.80;62.21;95717.39;108411;1271;22518;-73
2024/03/30 02:49:10;;;;;;;19.20;3.50;;;;;;;12.79;62.34;95719.43;108398;1277;22547;-73
2024/03/30 02:51:42;;;;;;;15.40;3.00;;;;;;;12.78;62.48;95723.72;108401;1256;22526;-73
2024/03/30 02:54:18;;;;;;;14.80;2.90;;;;;;;12.78;62.54;95724.72;108355;1278;22535;-73
2024/03/30 02:56:49;;;;;;;26.20;4.40;;;;;;;12.82;62.74;95717.28;108395;1271;22546;-73
2024/03/30 02:59:19;;;;;;;19.70;3.90;;;;;;;12.92;62.76;95716.70;108417;1277;22599;-73
2024/03/30 03:01:52;;;;;;;19.20;3.80;;;;;;;12.98;62.60;95722.18;108368;1278;22628;-73
2024/03/30 03:04:23;;;;;;;13.60;2.80;;;;;;;12.98;62.46;95719.50;108407;1278;25246;-73
2024/03/30 03:06:56;;;;;;;19.50;3.70;;;;;;;12.97;62.46;95716.43;108433;1277;22525;-73
2024/03/30 03:09:27;;;;;;;19.20;3.70;;;;;;;12.96;62.54;95717.75;108370;1271;22529;-73
2024/03/30 03:11:57;;;;;;;16.40;3.20;;;;;;;12.95;62.61;95722.29;108448;1278;22538;-73
2024/03/30 03:14:29;;;;;;;17.00;3.00;;;;;;;12.96;62.48;95721.56;108425;1271;25202;-73
2024/03/30 03:17:03;;;;;;;20.30;3.70;;;;;;;12.96;62.46;95724.44;108380;1278;22546;-74
2024/03/30 03:19:33;;;;;;;24.20;3.20;;;;;;;12.94;62.58;95725.71;108472;1254;22532;-73
2024/03/30 03:22:04;;;;;;;22.30;4.30;;;;;;;12.93;62.54;95727.96;108406;1278;22544;-73
2024/03/30 03:24:35;;;;;;;18.70;3.50;;;;;;;12.92;62.57;95733.13;108362;1278;25443;-73
2024/03/30 03:27:08;;;;;;;21.50;3.90;;;;;;;12.93;62.60;95734.91;108412;1278;22629;-73
2024/03/30 03:29:41;;;;;;;17.20;3.50;;;;;;;12.92;62.60;95736.41;108452;1278;22522;-73
2024/03/30 03:32:12;;;;;;;18.80;3.70;;;;;;;12.93;62.61;95730.69;108436;1278;22525;-73
2024/03/30 03:34:43;;;;;;;23.60;4.50;;;;;;;12.96;62.77;95730.66;108433;1278;22659;-73
2024/03/30 03:37:14;;;;;;;17.90;3.00;;;;;;;12.98;62.62;95727.88;108392;1278;22758;-73
2024/03/30 03:39:44;;;;;;;14.90;2.90;;;;;;;12.96;62.71;95735.77;108349;1278;22534;-73
2024/03/30 03:42:20;;;;;;;22.90;3.90;;;;;;;12.94;62.64;95736.85;108388;1278;24257;-73
2024/03/30 03:44:52;;;;;;;20.50;3.90;;;;;;;12.91;62.65;95739.95;108397;1276;23891;-73
2024/03/30 03:47:23;;;;;;;24.10;4.00;;;;;;;12.88;62.64;95738.42;108392;1278;25446;-73
2024/03/30 03:49:57;;;;;;;25.40;4.60;;;;;;;12.86;62.71;95741.47;108417;1277;24224;-73
2024/03/30 03:52:30;;;;;;;26.30;4.10;;;;;;;12.87;62.69;95739.71;108416;1278;22568;-72
2024/03/30 03:55:01;;;;;;;20.50;3.90;;;;;;;12.88;62.73;95739.05;108275;1278;23825;-73
2024/03/30 03:57:34;;;;;;;18.90;4.40;;;;;;;12.88;62.78;95737.00;108319;1278;24295;-73
2024/03/30 04:00:07;;;;;;;14.00;2.40;;;;;;;12.84;62.76;95737.97;108396;1270;22522;-73
2024/03/30 04:02:40;;;;;;;18.80;3.10;;;;;;;12.79;62.91;95733.73;108425;1271;22565;-73
2024/03/30 04:05:16;;;;;;;28.30;4.80;;;;;;;12.76;62.96;95735.10;108379;1278;22652;-73
2024/03/30 04:07:50;;;;;;;15.80;3.20;;;;;;;12.73;63.00;95739.38;108441;1278;22564;-73
2024/03/30 04:10:24;;;;;;;18.10;3.60;;;;;;;12.74;63.30;95742.15;108382;1275;23877;-73
2024/03/30 04:12:55;;;;;;;25.80;3.20;;;;;;;12.79;63.37;95740.77;108426;1272;22558;-73
2024/03/30 04:15:29;;;;;;;18.80;3.70;;;;;;;12.84;63.26;95744.64;108394;1278;47185;-73
2024/03/30 04:18:03;;;;;;;19.60;4.10;;;;;;;12.85;63.15;95744.77;108382;1272;22572;-73
2024/03/30 04:20:41;;;;;;;25.40;4.50;;;;;;;12.78;63.10;95752.66;108460;1278;22545;-73
2024/03/30 04:23:12;;;;;;;20.30;4.50;;;;;;;12.72;63.39;95763.52;108375;1271;22544;-73
2024/03/30 04:25:45;;;;;;;20.90;3.50;;;;;;;12.67;63.44;95759.86;108287;1278;26129;-72
2024/03/30 04:28:18;;;;;;;21.50;3.70;;;;;;;12.63;63.45;95759.50;108436;1278;22583;-73
2024/03/30 04:31:00;;;;;;;22.40;4.20;;;;;;;12.57;63.68;95757.59;108424;1271;24380;-73
2024/03/30 04:33:34;;;;;;;23.90;4.00;;;;;;;12.53;63.78;95760.34;108442;1271;24178;-73
2024/03/30 04:36:07;;;;;;;18.60;4.40;;;;;;;12.52;63.86;95761.90;108439;1278;22540;-73
2024/03/30 04:38:40;;;;;;;23.90;5.00;;;;;;;12.50;63.92;95760.30;108365;1278;22547;-73
2024/03/30 04:41:12;;;;;;;19.50;3.90;;;;;;;12.48;63.92;95766.40;108419;1278;22522;-73
2024/03/30 04:43:44;;;;;;;25.70;3.80;;;;;;;12.49;64.20;95767.40;108428;1278;22515;-73
2024/03/30 04:46:17;;;;;;;18.80;4.40;;;;;;;12.58;64.34;95765.60;108381;1278;24225;-73
2024/03/30 04:48:50;;;;;;;27.20;4.00;;;;;;;12.72;64.15;95766.91;108365;1271;22559;-73
2024/03/30 04:51:24;;;;;;;20.80;4.60;;;;;;;12.85;63.87;95761.97;108408;1279;24191;-73
2024/03/30 04:53:55;;;;;;;22.30;5.00;;;;;;;12.99;63.66;95762.97;108384;1277;22534;-73
2024/03/30 04:56:26;;;;;;;19.30;3.90;;;;;;;13.15;63.21;95757.95;108377;1271;26584;-73
2024/03/30 04:59:03;;;;;;;26.70;3.80;;;;;;;13.31;62.67;95760.48;108414;1277;22525;-73
2024/03/30 05:01:37;;;;;;;25.70;4.30;;;;;;;13.51;62.34;95757.80;108421;1277;22656;-73
2024/03/30 05:04:10;;;;;;;20.40;4.50;;;;;;;13.78;61.79;95763.56;108362;1255;22540;-73
2024/03/30 05:06:41;;;;;;;28.10;5.40;;;;;;;14.06;61.07;95765.69;108282;1272;23748;-73
2024/03/30 05:09:14;;;;;;;31.80;6.00;;;;;;;14.36;60.52;95766.30;108336;1271;22530;-73
2024/03/30 05:11:47;;;;;;;27.40;5.80;;;;;;;14.68;59.97;95770.45;108331;1277;24333;-73
2024/03/30 05:14:23;;;;;;;31.80;6.00;;;;;;;14.99;58.87;95765.57;108400;1277;22525;-73
2024/03/30 05:16:56;;;;;;;24.10;4.50;;;;;;;15.13;58.14;95769.05;108387;1271;22518;-73
2024/03/30 05:22:30;;;;;;;29.10;5.90;;;;;;;15.58;56.21;95767.55;107966;1276;25436;-73
2024/03/30 05:25:07;;;;;;;32.20;5.80;;;;;;;15.84;55.89;95768.04;108183;1278;22575;-74
2024/03/30 05:27:39;;;;;;;24.00;4.50;;;;;;;16.02;55.42;95766.95;108423;1276;24194;-73
2024/03/30 05:30:14;;;;;;;31.30;5.00;;;;;;;16.33;55.32;95767.94;108447;1277;22518;-73
2024/03/30 05:32:46;;;;;;;26.50;5.80;;;;;;;16.89;54.92;95770.88;108330;1271;22981;-73
2024/03/30 05:35:22;;;;;;;24.10;4.50;;;;;;;17.36;53.71;95768.41;108265;1277;25487;-73
2024/03/30 05:37:54;;;;;;;24.20;4.80;;;;;;;17.47;52.26;95768.19;108373;1277;22518;-73
2024/03/30 05:40:27;;;;;;;37.10;7.50;;;;;;;17.69;52.16;95768.47;108354;1271;22549;-73
2024/03/30 05:43:04;;;;;;;27.70;5.50;;;;;;;18.00;51.56;95769.95;108439;1277;22797;-74
2024/03/30 05:45:36;;;;;;;30.30;5.90;;;;;;;18.33;50.37;95770.73;108364;1277;22535;-73
2024/03/30 05:48:08;;;;;;;30.50;5.50;;;;;;;18.41;49.87;95770.86;108433;1277;22615;-74
2024/03/30 05:50:42;;;;;;;30.60;4.20;;;;;;;18.56;48.76;95773.63;108427;1277;22622;-74
2024/03/30 05:53:14;;;;;;;28.00;5.40;;;;;;;18.39;48.10;95774.57;108316;1276;23838;-74
2024/03/30 05:55:45;;;;;;;24.30;5.70;;;;;;;18.44;48.19;95781.95;108362;1271;25306;-74
2024/03/30 05:58:18;;;;;;;30.80;5.90;;;;;;;18.59;48.45;95788.21;108422;1270;25357;-74
2024/03/30 06:00:49;;;;;;;32.90;6.00;;;;;;;18.93;48.13;95790.81;108405;1278;23949;-74
2024/03/30 06:03:20;;;;;;;22.60;5.50;;;;;;;19.35;47.86;95798.75;108417;1271;22535;-74
2024/03/30 06:05:52;;;;;;;31.80;6.40;;;;;;;19.62;47.34;95799.91;108202;1277;190341;-74
2024/03/30 06:08:23;;;;;;;36.50;7.00;;;;;;;19.91;46.85;95800.59;108406;1277;22637;-74
2024/03/30 06:10:54;;;;;;;29.20;6.30;;;;;;;20.11;46.25;95801.24;108366;1278;22641;-74
2024/03/30 06:13:29;;;;;;;34.50;7.00;;;;;;;20.23;45.36;95795.20;108440;1270;22572;-74
2024/03/30 06:16:04;;;;;;;39.70;7.30;;;;;;;20.63;45.91;95790.70;108402;1277;23406;-74
2024/03/30 06:18:35;;;;;;;30.50;6.80;;;;;;;21.27;45.32;95785.48;108439;1278;22533;-74
2024/03/30 06:21:08;;;;;;;32.10;6.50;;;;;;;21.44;43.93;95779.09;108438;1271;22522;-74
2024/03/30 06:23:38;;;;;;;27.20;5.80;;;;;;;21.40;43.19;95777.88;108442;1278;24255;-75
2024/03/30 06:26:09;;;;;;;35.60;6.90;;;;;;;21.45;41.98;95768.08;108353;1272;33193;-75
2024/03/30 06:28:40;;;;;;;43.70;8.20;;;;;;;21.49;42.40;95767.27;108146;1271;22683;-75
2024/03/30 06:31:12;;;;;;;32.80;6.90;;;;;;;22.06;42.93;95765.45;108345;1278;22657;-75
2024/03/30 06:33:44;;;;;;;32.80;6.10;;;;;;;22.53;41.30;95763.06;108303;1277;27148;-75
2024/03/30 06:36:17;;;;;;;40.00;8.30;;;;;;;22.70;40.78;95760.45;108432;1277;23814;-75
2024/03/30 06:38:48;;;;;;;27.20;5.80;;;;;;;22.88;40.27;95754.88;108380;1278;22529;-75
2024/03/30 06:44:09;;;;;;;40.30;7.60;;;;;;;23.01;39.22;95739.66;108148;1277;22525;-74
2024/03/30 06:46:41;;;;;;;34.60;6.80;;;;;;;23.01;39.06;95738.49;108439;1272;24203;-75
2024/03/30 06:49:11;;;;;;;32.30;6.80;;;;;;;23.00;38.68;95739.50;108428;1272;22535;-75
2024/03/30 06:51:42;;;;;;;39.40;7.80;;;;;;;23.14;38.49;95736.70;108422;1271;22518;-74
2024/03/30 06:54:14;;;;;;;34.30;7.00;;;;;;;23.30;38.38;95745.48;108258;1279;22522;-75
2024/03/30 06:56:45;;;;;;;37.00;7.10;;;;;;;23.46;38.34;95738.90;108428;1271;22541;-75
2024/03/30 06:59:17;;;;;;;36.90;7.80;;;;;;;23.52;37.47;95753.06;108434;1278;22519;-75
2024/03/30 07:01:48;;;;;;;36.80;7.80;;;;;;;23.40;37.23;95754.10;108422;1278;25265;-75
2024/03/30 07:04:19;;;;;;;33.40;7.70;;;;;;;23.09;36.90;95750.89;108378;1277;22569;-74
2024/03/30 07:06:50;;;;;;;30.20;7.40;;;;;;;22.94;37.21;95749.83;108297;1277;22516;-75
2024/03/30 07:09:22;;;;;;;33.10;7.50;;;;;;;22.98;37.80;95748.28;108353;1271;23754;-75
2024/03/30 07:11:55;;;;;;;38.60;7.60;;;;;;;23.27;37.53;95762.79;108298;1271;23844;-75
2024/03/30 07:14:25;;;;;;;40.50;8.30;;;;;;;23.24;37.05;95772.36;108475;1256;22573;-75
2024/03/30 07:17:00;;;;;;;37.70;7.80;;;;;;;23.02;37.29;95766.77;108443;1275;22598;-75
2024/03/30 07:19:35;;;;;;;33.40;8.50;;;;;;;23.05;37.76;95775.20;108476;1271;22545;-73
2024/03/30 07:22:09;;;;;;;38.90;8.80;;;;;;;23.20;37.75;95778.35;108469;1277;22525;-73
2024/03/30 07:24:43;;;;;;;37.20;9.40;;;;;;;23.50;38.06;95788.93;108368;1278;22544;-75
2024/03/30 07:27:13;;;;;;;38.30;8.10;;;;;;;23.87;37.40;95795.07;108430;1277;22519;-75
2024/03/30 07:29:49;;;;;;;37.90;8.40;;;;;;;24.28;37.26;95793.52;108506;1272;23672;-75
2024/03/30 07:32:19;;;;;;;41.70;7.80;;;;;;;24.62;36.55;95799.48;108464;1278;22752;-75
2024/03/30 07:34:52;;;;;;;34.90;8.80;;;;;;;24.68;36.48;95799.62;108398;1254;23328;-75
2024/03/30 07:37:24;;;;;;;44.40;9.60;;;;;;;24.80;36.19;95797.22;108347;1276;22587;-72
2024/03/30 07:39:55;;;;;;;36.50;8.10;;;;;;;24.64;35.48;95795.91;108368;1276;22520;-73
2024/03/30 07:42:26;;;;;;;39.00;7.70;;;;;;;24.52;35.08;95800.89;108482;1256;22528;-73
2024/03/30 07:45:00;;;;;;;39.00;8.50;;;;;;;24.51;35.28;95814.59;108410;1254;22518;-73
2024/03/30 07:47:37;;;;;;;36.50;9.10;;;;;;;24.55;35.21;95807.23;108434;1271;22512;-73
2024/03/30 07:50:08;;;;;;;44.70;9.80;;;;;;;24.30;34.60;95815.42;108368;1271;25540;-73
2024/03/30 07:52:49;;;;;;;39.50;9.00;;;;;;;24.12;35.69;95807.88;108442;1276;22519;-73
2024/03/30 07:55:21;;;;;;;35.80;8.40;;;;;;;24.46;35.27;95812.33;108401;1271;22525;-73
2024/03/30 07:57:52;;;;;;;40.80;9.30;;;;;;;24.44;34.87;95807.55;108435;1271;22522;-74
2024/03/30 08:00:26;;;;;;;47.90;10.10;;;;;;;24.46;35.21;95809.33;108484;1277;24265;-75
2024/03/30 08:03:01;;;;;;;36.50;7.30;;;;;;;24.39;35.25;95808.02;108411;1278;26587;-75
2024/03/30 08:05:37;;;;;;;40.00;8.60;;;;;;;24.35;35.46;95804.05;108419;1271;22532;-75
2024/03/30 08:08:10;;;;;;;39.50;9.00;;;;;;;24.63;35.51;95802.81;108378;1271;25224;-75
2024/03/30 08:10:44;;;;;;;32.60;7.70;;;;;;;24.77;35.22;95811.93;108497;1271;24176;-75
2024/03/30 08:13:16;;;;;;;36.60;7.90;;;;;;;25.02;34.94;95813.46;108430;1278;25138;-76
2024/03/30 08:15:48;;;;;;;47.50;9.40;;;;;;;24.69;33.77;95811.55;108389;1271;22535;-75
2024/03/30 08:18:20;;;;;;;40.30;7.60;;;;;;;24.56;35.07;95806.37;108806;1256;22526;-76
2024/03/30 08:20:53;;;;;;;36.60;8.10;;;;;;;24.48;34.03;95818.15;108425;1278;22531;-76
2024/03/30 08:23:25;;;;;;;37.10;7.30;;;;;;;24.46;34.42;95812.88;108346;1278;22548;-75
2024/03/30 08:25:56;;;;;;;39.30;9.80;;;;;;;24.37;33.97;95814.81;108417;1278;22533;-75
2024/03/30 08:28:29;;;;;;;34.00;7.80;;;;;;;23.93;33.60;95823.24;108429;1278;22598;-75
2024/03/30 08:31:01;;;;;;;47.60;7.90;;;;;;;23.70;34.14;95812.59;108414;1270;22529;-75
2024/03/30 08:33:32;;;;;;;50.90;9.10;;;;;;;23.86;34.45;95811.15;108433;1278;22520;-74
2024/03/30 08:36:06;;;;;;;47.10;9.20;;;;;;;23.88;34.35;95808.07;108372;1272;22541;-74
2024/03/30 08:38:36;;;;;;;40.60;8.20;;;;;;;23.77;34.26;95810.44;108358;1273;22561;-74
2024/03/30 08:41:07;;;;;;;45.30;8.80;;;;;;;23.75;34.07;95813.61;108140;1276;24036;-75
2024/03/30 08:43:40;;;;;;;36.60;7.80;;;;;;;23.82;34.42;95821.05;108354;1271;23679;-75
2024/03/30 08:46:12;;;;;;;47.30;8.90;;;;;;;23.91;34.38;95818.52;108433;1278;27058;-74
2024/03/30 08:48:46;;;;;;;46.90;9.10;;;;;;;23.99;34.06;95815.44;108418;1272;22658;-75
2024/03/30 08:51:20;;;;;;;34.30;7.80;;;;;;;23.59;33.74;95812.08;108411;1274;24027;-75
2024/03/30 08:53:51;;;;;;;33.90;7.40;;;;;;;23.21;33.59;95809.13;108391;1276;22567;-75
2024/03/30 08:56:22;;;;;;;43.00;7.70;;;;;;;22.81;34.85;95819.15;108370;1278;22521;-75
2024/03/30 08:58:56;;;;;;;49.80;8.40;;;;;;;22.82;35.54;95826.27;108403;1278;23326;-75
2024/03/30 09:01:27;;;;;;;37.90;7.30;;;;;;;22.90;35.32;95830.80;108444;1278;24198;-75
2024/03/30 09:04:00;;;;;;;51.50;10.10;;;;;;;22.80;35.52;95830.55;108371;1271;22503;-76
2024/03/30 09:06:33;;;;;;;49.70;8.30;;;;;;;22.86;35.75;95828.16;108328;1278;24260;-76
2024/03/30 09:09:06;;;;;;;46.50;8.50;;;;;;;22.91;35.93;95830.04;108379;1271;22529;-76
2024/03/30 09:11:37;;;;;;;37.20;7.10;;;;;;;23.08;36.27;95826.20;108373;1278;22529;-74
2024/03/30 09:14:08;;;;;;;38.20;8.10;;;;;;;23.06;35.25;95823.17;108395;1276;22525;-75
2024/03/30 09:16:41;;;;;;;49.00;9.80;;;;;;;23.06;35.82;95826.89;108260;1271;23760;-75
2024/03/30 09:19:15;;;;;;;40.20;8.00;;;;;;;23.08;35.30;95825.61;108347;1271;23811;-75
2024/03/30 09:21:47;;;;;;;45.60;8.70;;;;;;;23.02;34.75;95819.98;108350;1271;22688;-75
2024/03/30 09:24:20;;;;;;;37.50;6.90;;;;;;;22.96;34.51;95819.58;108384;1271;22512;-75
2024/03/30 09:26:50;;;;;;;32.80;6.30;;;;;;;22.84;33.91;95813.08;108368;1271;22525;-74
2024/03/30 09:29:23;;;;;;;34.30;6.70;;;;;;;22.42;33.34;95827.27;108496;1278;22713;-74
2024/03/30 09:31:56;;;;;;;35.40;6.40;;;;;;;21.96;33.31;95808.54;108370;1278;24260;-75
2024/03/30 09:34:29;;;;;;;33.40;7.20;;;;;;;21.55;33.59;95810.02;108408;1271;22552;-75
2024/03/30 09:37:07;;;;;;;41.50;7.50;;;;;;;21.55;33.82;95830.08;108381;1278;22522;-75
2024/03/30 09:39:39;;;;;;;34.60;5.90;;;;;;;21.61;33.84;95820.12;108400;1271;24927;-73
2024/03/30 09:42:17;;;;;;;37.50;8.20;;;;;;;21.63;34.53;95813.89;108434;1271;22519;-73
2024/03/30 09:44:50;;;;;;;45.10;8.30;;;;;;;21.69;35.56;95813.73;108459;1274;22565;-73
2024/03/30 09:47:25;;;;;;;29.00;5.80;;;;;;;21.92;36.01;95813.20;108369;1277;22523;-73
2024/03/30 09:49:59;;;;;;;36.50;6.30;;;;;;;22.01;36.09;95816.21;108138;1271;22522;-73
2024/03/30 09:52:35;;;;;;;31.10;5.60;;;;;;;22.09;36.02;95817.08;108012;1271;24039;-73
2024/03/30 09:55:11;;;;;;;32.70;5.90;;;;;;;22.09;36.09;95805.45;108371;1277;24219;-73
2024/03/30 09:57:46;;;;;;;37.20;6.80;;;;;;;22.14;35.99;95811.75;108351;1271;22585;-73
2024/03/30 10:00:18;;;;;;;40.90;8.60;;;;;;;22.15;35.71;95805.44;108422;1276;23127;-73
2024/03/30 10:02:52;;;;;;;35.60;7.80;;;;;;;22.19;36.23;95809.32;108366;1271;22527;-73
2024/03/30 10:05:25;;;;;;;37.70;6.60;;;;;;;22.35;36.17;95803.83;108328;1271;25305;-73
2024/03/30 10:08:02;;;;;;;31.70;7.10;;;;;;;22.51;36.22;95801.86;108338;1271;22518;-73
2024/03/30 10:10:34;;;;;;;42.60;7.90;;;;;;;22.56;35.46;95785.77;108403;1270;25315;-73
2024/03/30 10:13:14;;;;;;;51.20;8.30;;;;;;;22.53;35.79;95793.23;108444;1277;24214;-73
2024/03/30 10:15:52;;;;;;;43.80;8.30;;;;;;;22.82;36.25;95784.02;108325;1277;22537;-73
2024/03/30 10:18:23;;;;;;;40.70;7.90;;;;;;;23.15;36.10;95787.06;108430;1277;22541;-73
2024/03/30 10:20:54;;;;;;;33.00;6.90;;;;;;;23.26;35.19;95789.38;108329;1270;22534;-73
2024/03/30 10:23:26;;;;;;;47.10;7.80;;;;;;;23.18;34.02;95782.05;108318;1271;23807;-73
2024/03/30 10:26:04;;;;;;;36.30;7.40;;;;;;;23.02;33.98;95778.27;108203;1271;24232;-73
2024/03/30 10:28:39;;;;;;;45.30;7.20;;;;;;;23.04;33.28;95781.77;108280;1271;22521;-73
2024/03/30 10:31:12;;;;;;;41.80;6.50;;;;;;;23.00;32.97;95771.39;108337;1278;25303;-74
2024/03/30 10:33:47;;;;;;;41.30;8.20;;;;;;;23.02;32.28;95781.14;108254;1271;22532;-74
2024/03/30 10:36:23;;;;;;;37.60;8.00;;;;;;;22.98;30.83;95776.40;108242;1278;22531;-73
2024/03/30 10:38:58;;;;;;;44.50;7.10;;;;;;;22.94;31.24;95770.73;108390;1271;22991;-73
2024/03/30 10:41:30;;;;;;;50.50;9.20;;;;;;;23.00;30.78;95779.36;108364;1274;22561;-73
2024/03/30 10:44:03;;;;;;;43.80;8.00;;;;;;;22.99;29.25;95774.40;108396;1277;22537;-75
2024/03/30 10:46:37;;;;;;;56.00;9.10;;;;;;;22.91;29.17;95770.41;108342;1277;22564;-75
2024/03/30 10:49:09;;;;;;;52.20;8.90;;;;;;;22.80;29.00;95782.45;108319;1270;22561;-75
2024/03/30 10:51:40;;;;;;;48.70;8.20;;;;;;;22.82;29.97;95778.63;108258;1271;22538;-76
2024/03/30 10:54:14;;;;;;;38.30;8.30;;;;;;;22.86;29.71;95785.61;108209;1271;22534;-75
2024/03/30 10:56:52;;;;;;;42.70;8.40;;;;;;;22.72;29.30;95797.21;108302;1276;22717;-75
2024/03/30 10:59:24;;;;;;;39.10;7.40;;;;;;;22.47;29.33;95790.57;108414;1271;26448;-75
2024/03/30 11:01:58;;;;;;;49.70;8.70;;;;;;;22.42;29.88;95792.54;108007;1271;22526;-76
2024/03/30 11:04:30;;;;;;;49.10;9.30;;;;;;;22.56;30.50;95791.64;108276;1278;22802;-76
2024/03/30 11:07:09;;;;;;;47.60;9.00;;;;;;;22.74;30.64;95786.66;109169;1271;22528;-76
2024/03/30 11:09:41;;;;;;;30.90;6.30;;;;;;;22.78;30.47;95785.36;108303;1272;24333;-76
2024/03/30 11:12:14;;;;;;;40.70;6.80;;;;;;;22.77;30.21;95788.92;108778;1271;22518;-75
2024/03/30 11:14:45;;;;;;;37.70;6.90;;;;;;;22.76;29.84;95783.73;108177;1271;22532;-76
2024/03/30 11:17:26;;;;;;;43.00;8.00;;;;;;;22.70;29.71;95785.25;108172;1276;22526;-77
2024/03/30 11:20:11;;;;;;;39.70;7.60;;;;;;;22.79;29.31;95775.42;108082;1271;22538;-80
2024/03/30 11:22:53;;;;;;;39.00;7.80;;;;;;;22.87;29.00;95783.45;108248;1278;25550;-75
2024/03/30 11:25:29;;;;;;;46.90;8.00;;;;;;;23.01;28.90;95779.82;108357;1277;22583;-74
2024/03/30 11:28:06;;;;;;;48.10;8.90;;;;;;;23.07;28.57;95778.29;108275;1277;23966;-75
2024/03/30 11:30:46;;;;;;;36.80;7.20;;;;;;;23.11;28.02;95797.64;108325;1276;22531;-73
2024/03/30 11:33:22;;;;;;;54.40;7.50;;;;;;;23.02;27.65;95791.41;108336;1278;22525;-74
2024/03/30 11:35:59;;;;;;;39.70;8.10;;;;;;;23.01;27.27;95791.71;108315;1256;22566;-72
2024/03/30 11:38:34;;;;;;;31.50;6.90;;;;;;;23.02;27.64;95777.42;108381;1278;24294;-74
2024/03/30 11:41:06;;;;;;;53.10;8.70;;;;;;;22.93;27.33;95778.92;108266;1277;22654;-74
2024/03/30 11:43:55;;;;;;;46.70;7.40;;;;;;;22.98;27.90;95785.29;108382;1277;22644;-74
2024/03/30 11:46:28;;;;;;;39.90;6.20;;;;;;;22.99;27.19;95776.04;108326;1271;23860;-74
2024/03/30 11:49:03;;;;;;;37.40;7.00;;;;;;;22.96;27.60;95771.14;108434;1273;24498;-75